createdAt,value
2023-11-18T00:02:07.240Z,3.72
2023-11-18T00:04:34.853Z,6.05
2023-11-18T00:07:02.402Z,4.65
2023-11-18T00:09:29.881Z,7.30
2023-11-18T00:11:58.869Z,7.13
2023-11-18T00:14:26.438Z,4.87
2023-11-18T00:16:54.275Z,3.70
2023-11-18T00:19:21.884Z,7.38
2023-11-18T00:21:50.176Z,6.00
2023-11-18T00:24:17.651Z,6.37
2023-11-18T00:26:45.182Z,7.75
2023-11-18T00:29:14.032Z,7.70
2023-11-18T00:31:41.724Z,9.20
2023-11-18T00:34:09.311Z,5.88
2023-11-18T00:36:36.821Z,6.38
2023-11-18T00:39:05.310Z,7.57
2023-11-18T00:41:32.907Z,6.60
2023-11-18T00:44:00.619Z,8.63
2023-11-18T00:46:29.681Z,14.15
2023-11-18T00:48:59.855Z,7.05
2023-11-18T00:51:27.931Z,9.63
2023-11-18T00:53:56.645Z,3.03
2023-11-18T00:56:24.264Z,6.63
2023-11-18T00:58:51.860Z,11.83
2023-11-18T01:01:19.480Z,6.72
2023-11-18T01:03:48.692Z,6.15
2023-11-18T01:06:17.223Z,4.47
2023-11-18T01:08:46.157Z,8.00
2023-11-18T01:11:19.776Z,7.15
2023-11-18T01:13:47.393Z,4.03
2023-11-18T01:16:15.821Z,10.15
2023-11-18T01:18:43.937Z,6.15
2023-11-18T01:21:13.806Z,5.43
2023-11-18T01:23:43.724Z,5.82
2023-11-18T01:26:13.415Z,4.33
2023-11-18T01:28:43.635Z,5.25
2023-11-18T01:31:11.877Z,4.85
2023-11-18T01:33:41.059Z,12.97
2023-11-18T01:36:10.464Z,6.90
2023-11-18T01:38:39.830Z,11.73
2023-11-18T01:41:08.193Z,7.10
2023-11-18T01:43:36.092Z,13.20
2023-11-18T01:46:06.776Z,5.05
2023-11-18T01:48:35.147Z,6.50
2023-11-18T01:51:05.397Z,7.22
2023-11-18T01:53:34.220Z,5.70
2023-11-18T01:56:06.219Z,4.05
2023-11-18T01:58:36.711Z,5.95
2023-11-18T02:01:08.422Z,6.30
2023-11-18T02:03:36.538Z,6.00
2023-11-18T02:06:05.753Z,5.43
2023-11-18T02:08:36.073Z,6.30
2023-11-18T02:11:16.310Z,4.80
2023-11-18T02:13:48.929Z,4.20
2023-11-18T02:16:17.332Z,3.60
2023-11-18T02:18:45.453Z,8.90
2023-11-18T02:21:15.200Z,5.65
2023-11-18T02:23:43.141Z,5.93
2023-11-18T02:26:12.048Z,3.45
2023-11-18T02:28:39.636Z,7.53
2023-11-18T02:31:16.518Z,5.43
2023-11-18T02:33:52.820Z,2.58
2023-11-18T02:36:26.144Z,6.47
2023-11-18T02:38:56.114Z,4.45
2023-11-18T02:41:26.588Z,6.50
2023-11-18T02:43:54.747Z,5.97
2023-11-18T02:46:24.397Z,4.40
2023-11-18T02:48:55.057Z,2.40
2023-11-18T02:51:23.456Z,4.22
2023-11-18T02:53:51.354Z,5.50
2023-11-18T02:56:19.835Z,5.63
2023-11-18T02:58:48.796Z,4.35
2023-11-18T03:01:16.514Z,4.55
2023-11-18T03:03:44.313Z,10.07
2023-11-18T03:06:12.449Z,5.65
2023-11-18T03:08:42.513Z,7.70
2023-11-18T03:11:10.740Z,4.65
2023-11-18T03:13:39.685Z,5.03
2023-11-18T03:16:12.471Z,5.13
2023-11-18T03:18:41.007Z,5.88
2023-11-18T03:21:13.229Z,3.33
2023-11-18T03:23:41.785Z,4.88
2023-11-18T03:26:09.809Z,12.75
2023-11-18T03:28:38.678Z,8.45
2023-11-18T03:31:06.504Z,7.38
2023-11-18T03:33:35.655Z,5.05
2023-11-18T03:36:04.265Z,9.00
2023-11-18T03:38:31.798Z,6.65
2023-11-18T03:40:59.893Z,7.55
2023-11-18T03:43:27.701Z,15.85
2023-11-18T03:45:57.523Z,9.23
2023-11-18T03:48:25.369Z,14.55
2023-11-18T03:50:54.948Z,6.10
2023-11-18T03:53:22.502Z,6.40
2023-11-18T03:55:51.883Z,12.23
2023-11-18T03:58:19.430Z,5.10
2023-11-18T04:00:46.929Z,7.15
2023-11-18T04:03:14.460Z,3.65
2023-11-18T04:05:41.957Z,7.85
2023-11-18T04:08:10.876Z,7.97
2023-11-18T04:10:38.464Z,7.95
2023-11-18T04:13:06.056Z,7.97
2023-11-18T04:15:33.648Z,4.20
2023-11-18T04:18:01.215Z,7.43
2023-11-18T04:20:28.726Z,5.28
2023-11-18T04:22:56.309Z,6.78
2023-11-18T04:25:26.371Z,10.13
2023-11-18T04:27:53.928Z,10.60
2023-11-18T04:30:21.871Z,4.22
2023-11-18T04:32:49.409Z,5.25
2023-11-18T04:35:18.208Z,6.25
2023-11-18T04:37:47.101Z,6.77
2023-11-18T04:40:14.827Z,4.10
2023-11-18T04:42:43.669Z,8.40
2023-11-18T04:45:11.536Z,5.47
2023-11-18T04:47:39.961Z,5.80
2023-11-18T04:50:09.593Z,10.50
2023-11-18T04:52:37.591Z,7.07
2023-11-18T04:55:07.101Z,6.88
2023-11-18T04:57:35.007Z,9.02
2023-11-18T05:00:11.833Z,8.47
2023-11-18T05:02:39.987Z,11.30
2023-11-18T05:05:08.142Z,6.13
2023-11-18T05:07:36.258Z,8.45
2023-11-18T05:10:05.120Z,7.07
2023-11-18T05:12:34.462Z,7.47
2023-11-18T05:15:02.344Z,16.05
2023-11-18T05:17:31.551Z,9.25
2023-11-18T05:19:59.110Z,7.70
2023-11-18T05:22:26.676Z,7.85
2023-11-18T05:24:54.211Z,8.13
2023-11-18T05:27:21.747Z,7.65
2023-11-18T05:29:55.242Z,6.27
2023-11-18T05:32:23.923Z,12.43
2023-11-18T05:34:54.819Z,16.58
2023-11-18T05:37:22.744Z,13.17
2023-11-18T05:39:54.448Z,9.13
2023-11-18T05:42:22.063Z,13.57
2023-11-18T05:44:50.270Z,8.53
2023-11-18T05:47:17.864Z,7.90
2023-11-18T05:49:45.411Z,18.13
2023-11-18T05:52:14.278Z,8.20
2023-11-18T05:54:41.786Z,14.67
2023-11-18T05:57:09.558Z,8.73
2023-11-18T05:59:37.109Z,13.18
2023-11-18T06:02:05.124Z,17.90
2023-11-18T06:04:32.953Z,12.60
2023-11-18T06:07:00.474Z,13.50
2023-11-18T06:09:29.524Z,9.77
2023-11-18T06:11:57.074Z,8.98
2023-11-18T06:14:24.621Z,15.03
2023-11-18T06:16:53.104Z,16.90
2023-11-18T06:19:21.955Z,13.00
2023-11-18T06:21:49.459Z,12.47
2023-11-18T06:24:18.257Z,15.05
2023-11-18T06:26:47.883Z,17.60
2023-11-18T06:29:16.501Z,8.93
2023-11-18T06:31:44.639Z,9.27
2023-11-18T06:34:13.868Z,20.10
2023-11-18T06:36:41.384Z,9.27
2023-11-18T06:39:09.685Z,10.77
2023-11-18T06:41:40.586Z,12.57
2023-11-18T06:44:13.714Z,15.43
2023-11-18T06:46:42.174Z,9.20
2023-11-18T06:49:12.005Z,7.37
2023-11-18T06:51:39.864Z,10.30
2023-11-18T06:54:10.283Z,10.60
2023-11-18T06:56:39.627Z,9.17
2023-11-18T06:59:09.105Z,6.23
2023-11-18T07:01:37.242Z,9.00
2023-11-18T07:04:09.616Z,7.60
2023-11-18T07:06:39.253Z,20.57
2023-11-18T07:09:13.537Z,11.87
2023-11-18T07:11:41.925Z,7.33
2023-11-18T07:14:11.157Z,11.63
2023-11-18T07:16:40.365Z,15.33
2023-11-18T07:19:08.215Z,16.40
2023-11-18T07:21:35.938Z,17.80
2023-11-18T07:24:04.299Z,22.13
2023-11-18T07:26:31.809Z,8.85
2023-11-18T07:28:59.326Z,12.57
2023-11-18T07:31:28.247Z,11.50
2023-11-18T07:33:55.774Z,13.80
2023-11-18T07:36:22.346Z,9.13
2023-11-18T07:38:51.245Z,20.50
2023-11-18T07:41:25.464Z,12.33
2023-11-18T07:43:53.828Z,7.23
2023-11-18T07:46:23.281Z,10.83
2023-11-18T07:48:52.912Z,9.70
2023-11-18T07:51:22.428Z,10.13
2023-11-18T07:53:50.058Z,17.80
2023-11-18T07:56:18.488Z,10.83
2023-11-18T07:58:47.654Z,13.70
2023-11-18T08:01:17.268Z,25.33
2023-11-18T08:03:45.340Z,9.40
2023-11-18T08:06:14.264Z,11.13
2023-11-18T08:08:42.047Z,7.97
2023-11-18T08:11:12.853Z,9.82
2023-11-18T08:13:40.680Z,20.53
2023-11-18T08:16:09.633Z,17.10
2023-11-18T08:18:37.735Z,15.20
2023-11-18T08:21:08.211Z,26.57
2023-11-18T08:23:38.182Z,18.15
2023-11-18T08:26:07.130Z,16.00
2023-11-18T08:28:35.274Z,13.07
2023-11-18T08:31:03.006Z,10.03
2023-11-18T08:33:31.605Z,12.87
2023-11-18T08:35:59.195Z,11.77
2023-11-18T08:38:29.137Z,21.37
2023-11-18T08:40:58.123Z,17.60
2023-11-18T08:43:26.462Z,22.87
2023-11-18T08:45:54.144Z,18.23
2023-11-18T08:48:23.954Z,17.50
2023-11-18T08:50:52.653Z,18.17
2023-11-18T08:53:24.616Z,14.63
2023-11-18T08:55:54.996Z,30.00
2023-11-18T08:58:28.194Z,20.00
2023-11-18T09:00:59.035Z,12.90
2023-11-18T09:03:28.683Z,12.07
2023-11-18T09:06:05.050Z,18.07
2023-11-18T09:08:36.137Z,17.87
2023-11-18T09:11:06.117Z,11.23
2023-11-18T09:13:36.830Z,24.87
2023-11-18T09:16:09.409Z,10.53
2023-11-18T09:18:41.452Z,23.67
2023-11-18T09:21:15.395Z,20.70
2023-11-18T09:23:44.411Z,21.93
2023-11-18T09:26:12.119Z,21.37
2023-11-18T09:28:41.327Z,25.93
2023-11-18T09:31:12.570Z,14.10
2023-11-18T09:33:45.915Z,15.53
2023-11-18T09:36:18.535Z,28.57
2023-11-18T09:38:49.106Z,12.57
2023-11-18T09:41:17.888Z,14.80
2023-11-18T09:43:49.024Z,14.97
2023-11-18T09:46:19.943Z,15.43
2023-11-18T09:48:53.547Z,19.20
2023-11-18T09:51:23.874Z,15.77
2023-11-18T09:53:53.539Z,16.17
2023-11-18T09:56:38.748Z,21.63
2023-11-18T09:59:31.099Z,19.30
2023-11-18T10:02:00.170Z,15.53
2023-11-18T10:04:28.701Z,11.43
2023-11-18T10:06:57.618Z,20.23
2023-11-18T10:09:29.451Z,14.40
2023-11-18T10:12:01.649Z,21.27
2023-11-18T10:14:30.784Z,29.20
2023-11-18T10:16:58.714Z,21.73
2023-11-18T10:19:27.083Z,15.10
2023-11-18T10:21:57.833Z,18.50
2023-11-18T10:24:26.191Z,22.67
2023-11-18T10:26:58.191Z,13.17
2023-11-18T10:29:29.083Z,16.20
2023-11-18T10:32:11.148Z,16.10
2023-11-18T10:34:39.636Z,12.57
2023-11-18T10:37:07.803Z,33.10
2023-11-18T10:39:36.787Z,22.23
2023-11-18T10:42:06.133Z,39.57
2023-11-18T10:44:33.669Z,21.53
2023-11-18T10:47:01.400Z,25.83
2023-11-18T10:49:37.791Z,31.53
2023-11-18T10:52:09.665Z,21.33
2023-11-18T10:54:38.612Z,21.10
2023-11-18T10:57:10.257Z,26.10
2023-11-18T10:59:38.830Z,19.40
2023-11-18T11:02:25.198Z,19.33
2023-11-18T11:04:54.354Z,20.47
2023-11-18T11:07:24.803Z,24.73
2023-11-18T11:09:57.530Z,28.53
2023-11-18T11:12:27.735Z,22.73
2023-11-18T11:15:01.696Z,20.10
2023-11-18T11:17:32.102Z,20.67
2023-11-18T11:20:19.179Z,19.57
2023-11-18T11:22:59.120Z,27.13
2023-11-18T11:25:33.144Z,16.00
2023-11-18T11:28:11.430Z,27.33
2023-11-18T11:30:45.224Z,28.20
2023-11-18T11:33:20.393Z,23.47
2023-11-18T11:35:56.833Z,25.07
2023-11-18T11:38:25.563Z,20.07
2023-11-18T11:40:54.037Z,27.80
2023-11-18T11:43:23.039Z,17.00
2023-11-18T11:45:52.879Z,21.17
2023-11-18T11:48:27.522Z,22.63
2023-11-18T11:51:27.354Z,26.00
2023-11-18T11:54:01.447Z,23.30
2023-11-18T11:56:42.341Z,25.07
2023-11-18T11:59:12.415Z,18.63
2023-11-18T12:01:41.386Z,20.17
2023-11-18T12:04:12.092Z,20.80
2023-11-18T12:06:45.306Z,14.53
2023-11-18T12:09:20.367Z,13.07
2023-11-18T12:11:49.910Z,16.97
2023-11-18T12:14:39.020Z,14.33
2023-11-18T12:17:11.150Z,15.10
2023-11-18T12:19:47.422Z,14.97
2023-11-18T12:22:25.195Z,11.90
2023-11-18T12:25:33.720Z,14.67
2023-11-18T12:28:09.414Z,12.40
2023-11-18T12:30:44.742Z,12.53
2023-11-18T12:33:19.476Z,10.40
2023-11-18T12:36:29.042Z,16.23
2023-11-18T12:39:26.480Z,12.40
2023-11-18T12:42:07.950Z,13.40
2023-11-18T12:44:40.980Z,8.20
2023-11-18T12:47:15.995Z,12.30
2023-11-18T12:49:44.320Z,12.17
2023-11-18T12:52:15.830Z,13.50
2023-11-18T12:54:44.699Z,10.60
2023-11-18T12:57:15.222Z,8.97
2023-11-18T12:59:44.020Z,8.00
2023-11-18T13:02:14.652Z,9.03
2023-11-18T13:04:42.437Z,10.70
2023-11-18T13:07:12.456Z,8.50
2023-11-18T13:09:42.035Z,10.70
2023-11-18T13:12:10.109Z,12.47
2023-11-18T13:14:40.582Z,15.43
2023-11-18T13:17:16.828Z,11.83
2023-11-18T13:19:46.237Z,11.87
2023-11-18T13:22:15.586Z,11.83
2023-11-18T13:24:45.106Z,11.23
2023-11-18T13:27:17.133Z,10.07
2023-11-18T13:29:50.039Z,9.43
2023-11-18T13:32:17.976Z,9.27
2023-11-18T13:34:45.645Z,9.00
2023-11-18T13:37:17.856Z,8.13
2023-11-18T13:39:48.220Z,6.50
2023-11-18T13:42:23.891Z,12.23
2023-11-18T13:44:54.385Z,8.20
2023-11-18T13:47:23.932Z,13.37
2023-11-18T13:49:53.442Z,8.90
2023-11-18T13:52:22.043Z,5.43
2023-11-18T13:54:54.520Z,9.10
2023-11-18T13:57:23.099Z,11.07
2023-11-18T13:59:52.824Z,6.17
2023-11-18T14:02:22.409Z,5.57
2023-11-18T14:04:52.270Z,7.70
2023-11-18T14:07:19.963Z,8.17
2023-11-18T14:09:47.598Z,7.73
2023-11-18T14:12:15.980Z,7.17
2023-11-18T14:14:43.572Z,5.97
2023-11-18T14:17:12.551Z,7.23
2023-11-18T14:19:42.572Z,6.00
2023-11-18T14:22:10.700Z,5.70
2023-11-18T14:24:39.257Z,7.90
2023-11-18T14:27:08.837Z,4.10
2023-11-18T14:29:37.481Z,6.53
2023-11-18T14:32:07.163Z,6.03
2023-11-18T14:34:36.090Z,7.33
2023-11-18T14:37:04.755Z,6.07
2023-11-18T14:39:33.598Z,8.53
2023-11-18T14:42:01.172Z,4.10
2023-11-18T14:44:28.782Z,5.87
2023-11-18T14:46:56.817Z,5.13
2023-11-18T14:49:24.960Z,3.67
2023-11-18T14:51:54.033Z,4.17
2023-11-18T14:54:21.559Z,5.20
2023-11-18T14:56:50.097Z,4.03
2023-11-18T14:59:17.830Z,5.50
2023-11-18T15:01:45.595Z,4.80
2023-11-18T15:04:13.273Z,12.70
2023-11-18T15:06:41.989Z,3.90
2023-11-18T15:09:12.001Z,4.00
2023-11-18T15:11:39.696Z,3.43
2023-11-18T15:14:08.818Z,11.53
2023-11-18T15:16:36.559Z,5.00
2023-11-18T15:19:04.588Z,2.13
2023-11-18T15:21:32.224Z,2.87
2023-11-18T15:24:02.036Z,3.13
2023-11-18T15:26:32.496Z,3.83
2023-11-18T15:29:02.687Z,2.87
2023-11-18T15:31:30.620Z,2.60
2023-11-18T15:33:58.987Z,2.10
2023-11-18T15:36:26.615Z,3.07
2023-11-18T15:38:54.225Z,4.33
2023-11-18T15:41:23.215Z,2.50
2023-11-18T15:43:53.526Z,2.00
2023-11-18T15:46:21.069Z,2.77
2023-11-18T15:48:48.708Z,1.63
2023-11-18T15:51:17.153Z,3.57
2023-11-18T15:53:45.034Z,2.50
2023-11-18T15:56:12.811Z,5.20
2023-11-18T15:58:40.569Z,2.70
2023-11-18T16:01:10.938Z,3.80
2023-11-18T16:03:38.703Z,3.17
2023-11-18T16:06:07.085Z,1.73
2023-11-18T16:08:35.697Z,2.60
2023-11-18T16:11:03.798Z,2.80
2023-11-18T16:13:31.429Z,2.20
2023-11-18T16:15:59.025Z,2.70
2023-11-18T16:18:27.933Z,2.23
2023-11-18T16:20:59.201Z,4.60
2023-11-18T16:23:30.980Z,1.77
2023-11-18T16:25:58.988Z,3.00
2023-11-18T16:28:28.318Z,3.77
2023-11-18T16:30:56.894Z,1.97
2023-11-18T16:33:25.487Z,3.20
2023-11-18T16:35:54.546Z,2.00
2023-11-18T16:38:22.232Z,9.60
2023-11-18T16:40:50.003Z,4.60
2023-11-18T16:43:17.604Z,2.20
2023-11-18T16:45:45.467Z,3.67
2023-11-18T16:48:13.130Z,3.00
2023-11-18T16:50:41.200Z,2.77
2023-11-18T16:53:12.127Z,3.37
2023-11-18T16:55:39.751Z,4.97
2023-11-18T16:58:08.079Z,8.60
2023-11-18T17:00:35.645Z,1.60
2023-11-18T17:03:05.073Z,2.20
2023-11-18T17:05:33.334Z,2.53
2023-11-18T17:08:02.248Z,4.10
2023-11-18T17:10:31.649Z,1.93
2023-11-18T17:13:01.267Z,1.30
2023-11-18T17:15:29.873Z,2.53
2023-11-18T17:18:02.812Z,3.57
2023-11-18T17:20:31.762Z,1.80
2023-11-18T17:22:59.694Z,2.60
2023-11-18T17:25:27.485Z,1.53
2023-11-18T17:27:57.047Z,1.33
2023-11-18T17:30:24.580Z,1.53
2023-11-18T17:32:54.110Z,1.30
2023-11-18T17:35:22.916Z,1.87
2023-11-18T17:37:51.076Z,2.40
2023-11-18T17:40:22.314Z,2.13
2023-11-18T17:42:54.199Z,1.37
2023-11-18T17:45:25.138Z,1.23
2023-11-18T17:47:53.018Z,1.80
2023-11-18T17:50:20.675Z,1.20
2023-11-18T17:52:48.733Z,2.60
2023-11-18T17:55:16.876Z,4.50
2023-11-18T17:57:45.826Z,3.00
2023-11-18T18:00:20.471Z,2.70
2023-11-18T18:02:50.085Z,1.17
2023-11-18T18:05:18.127Z,1.50
2023-11-18T18:07:45.835Z,1.13
2023-11-18T18:10:13.692Z,1.17
2023-11-18T18:12:44.092Z,1.87
2023-11-18T18:15:13.961Z,1.70
2023-11-18T18:17:41.857Z,2.70
2023-11-18T18:20:11.514Z,6.53
2023-11-18T18:22:38.626Z,2.00
2023-11-18T18:25:07.187Z,2.40
2023-11-18T18:27:35.252Z,3.57
2023-11-18T18:30:03.223Z,3.17
2023-11-18T18:32:31.221Z,3.57
2023-11-18T18:34:59.593Z,9.70
2023-11-18T18:37:28.792Z,1.37
2023-11-18T18:39:57.072Z,1.97
2023-11-18T18:42:25.362Z,1.90
2023-11-18T18:44:55.302Z,1.10
2023-11-18T18:47:25.297Z,1.90
2023-11-18T18:49:54.431Z,3.10
2023-11-18T18:52:21.993Z,4.23
2023-11-18T18:54:50.970Z,3.13
2023-11-18T18:57:18.897Z,2.17
2023-11-18T18:59:46.962Z,1.27
2023-11-18T19:02:15.421Z,1.67
2023-11-18T19:04:43.392Z,2.20
2023-11-18T19:07:11.276Z,2.10
2023-11-18T19:09:38.867Z,1.43
2023-11-18T19:12:09.188Z,4.70
2023-11-18T19:14:36.969Z,3.07
2023-11-18T19:17:05.260Z,2.83
2023-11-18T19:19:33.270Z,4.80
2023-11-18T19:22:01.832Z,1.80
2023-11-18T19:24:31.632Z,4.93
2023-11-18T19:26:59.228Z,2.97
2023-11-18T19:29:28.275Z,2.80
2023-11-18T19:31:56.015Z,3.30
2023-11-18T19:34:23.626Z,2.03
2023-11-18T19:36:51.413Z,1.20
2023-11-18T19:39:20.584Z,3.70
2023-11-18T19:41:48.376Z,2.13
2023-11-18T19:44:17.183Z,1.70
2023-11-18T19:46:50.818Z,2.33
2023-11-18T19:49:18.671Z,1.57
2023-11-18T19:51:46.662Z,2.50
2023-11-18T19:54:14.274Z,3.23
2023-11-18T19:56:41.869Z,3.23
2023-11-18T19:59:09.598Z,1.67
2023-11-18T20:01:38.136Z,4.67
2023-11-18T20:04:07.404Z,4.10
2023-11-18T20:06:35.407Z,3.20
2023-11-18T20:09:03.955Z,2.00
2023-11-18T20:11:32.265Z,3.60
2023-11-18T20:14:00.857Z,7.70
2023-11-18T20:16:29.665Z,4.07
2023-11-18T20:18:57.351Z,2.83
2023-11-18T20:21:26.229Z,4.53
2023-11-18T20:23:53.840Z,1.97
2023-11-18T20:26:22.408Z,3.33
2023-11-18T20:28:50.087Z,7.00
2023-11-18T20:31:17.825Z,4.00
2023-11-18T20:33:45.387Z,2.47
2023-11-18T20:36:12.909Z,4.23
2023-11-18T20:38:41.867Z,3.03
2023-11-18T20:41:09.530Z,3.93
2023-11-18T20:43:37.334Z,2.93
2023-11-18T20:46:06.362Z,2.50
2023-11-18T20:48:33.977Z,3.37
2023-11-18T20:51:01.502Z,4.43
2023-11-18T20:53:29.105Z,3.47
2023-11-18T20:55:58.205Z,4.70
2023-11-18T20:58:26.798Z,6.87
2023-11-18T21:00:54.430Z,4.80
2023-11-18T21:03:22.831Z,4.90
2023-11-18T21:05:51.088Z,4.20
2023-11-18T21:08:19.135Z,3.90
2023-11-18T21:10:47.944Z,4.77
2023-11-18T21:13:17.703Z,4.33
2023-11-18T21:15:45.246Z,5.17
2023-11-18T21:18:13.665Z,5.07
2023-11-18T21:20:41.346Z,4.87
2023-11-18T21:23:09.241Z,4.10
2023-11-18T21:25:36.886Z,7.63
2023-11-18T21:28:05.520Z,5.90
2023-11-18T21:30:34.788Z,3.90
2023-11-18T21:33:05.192Z,6.50
2023-11-18T21:35:33.199Z,3.73
2023-11-18T21:38:01.015Z,8.10
2023-11-18T21:40:30.155Z,6.90
2023-11-18T21:42:58.815Z,4.93
2023-11-18T21:45:28.810Z,6.10
2023-11-18T21:48:00.795Z,3.80
2023-11-18T21:50:29.215Z,3.27
2023-11-18T21:52:56.883Z,6.07
2023-11-18T21:55:24.847Z,10.60
2023-11-18T21:57:52.518Z,7.53
2023-11-18T22:00:20.683Z,5.13
2023-11-18T22:02:49.251Z,13.50
2023-11-18T22:05:19.068Z,3.13
2023-11-18T22:07:47.429Z,4.00
2023-11-18T22:10:16.648Z,4.67
2023-11-18T22:12:44.229Z,5.73
2023-11-18T22:15:15.965Z,6.60
2023-11-18T22:17:44.299Z,3.07
2023-11-18T22:20:14.410Z,5.20
2023-11-18T22:22:43.954Z,3.30
2023-11-18T22:25:13.989Z,3.67
2023-11-18T22:27:41.898Z,11.50
2023-11-18T22:30:12.839Z,5.23
2023-11-18T22:32:41.480Z,4.00
2023-11-18T22:35:10.459Z,4.63
2023-11-18T22:37:38.133Z,3.37
2023-11-18T22:40:16.507Z,4.97
2023-11-18T22:42:45.757Z,4.03
2023-11-18T22:45:17.221Z,3.87
2023-11-18T22:47:45.801Z,6.40
2023-11-18T22:50:14.609Z,6.47
2023-11-18T22:52:42.383Z,4.13
2023-11-18T22:57:42.793Z,4.87
2023-11-18T23:00:15.862Z,5.47
2023-11-18T23:02:43.706Z,4.07
2023-11-18T23:05:15.165Z,6.67
2023-11-18T23:07:45.477Z,4.10
2023-11-18T23:10:16.359Z,5.70
2023-11-18T23:12:44.249Z,6.60
2023-11-18T23:15:12.396Z,3.23
2023-11-18T23:17:40.030Z,5.53
2023-11-18T23:20:12.390Z,4.43
2023-11-18T23:22:40.328Z,4.13
2023-11-18T23:25:08.742Z,3.70
2023-11-18T23:27:37.822Z,5.83
2023-11-18T23:30:08.106Z,5.43
2023-11-18T23:32:35.730Z,5.63
2023-11-18T23:35:06.714Z,6.50
2023-11-18T23:37:34.309Z,14.70
2023-11-18T23:40:03.750Z,8.10
2023-11-18T23:42:32.958Z,5.07
2023-11-18T23:45:05.497Z,4.23
2023-11-18T23:47:33.072Z,4.80
2023-11-18T23:50:00.600Z,5.37
2023-11-18T23:52:28.237Z,4.70
2023-11-18T23:54:55.773Z,5.80
2023-11-18T23:57:23.527Z,4.67
2023-11-18T23:59:51.161Z,5.83
